createdAt,value
2018-04-24T00:00:08.913Z,64.47
2018-04-24T00:00:35.050Z,64.15
2018-04-24T00:01:01.199Z,64.66
2018-04-24T00:01:27.342Z,64.28
2018-04-24T00:01:53.484Z,65.01
2018-04-24T00:02:25.883Z,64.37
2018-04-24T00:02:52.026Z,64.37
2018-04-24T00:03:18.163Z,64.09
2018-04-24T00:03:44.308Z,64.37
2018-04-24T00:04:10.448Z,64.91
2018-04-24T00:04:36.596Z,64.91
2018-04-24T00:05:02.731Z,64.85
2018-04-24T00:05:28.924Z,64.95
2018-04-24T00:05:55.077Z,64.85
2018-04-24T00:06:21.242Z,64.95
2018-04-24T00:06:47.401Z,65.04
2018-04-24T00:07:13.544Z,65.14
2018-04-24T00:07:39.703Z,64.91
2018-04-24T00:08:05.866Z,64.18
2018-04-24T00:08:32.029Z,64.66
2018-04-24T00:08:58.168Z,64.95
2018-04-24T00:09:24.311Z,64.47
2018-04-24T00:09:50.478Z,64.53
2018-04-24T00:10:16.585Z,64.95
2018-04-24T00:10:42.734Z,64.85
2018-04-24T00:11:08.876Z,64.91
2018-04-24T00:11:35.012Z,64.56
2018-04-24T00:12:01.159Z,65.04
2018-04-24T00:12:27.299Z,64.85
2018-04-24T00:12:53.435Z,64.91
2018-04-24T00:13:19.576Z,64.72
2018-04-24T00:13:45.744Z,65.01
2018-04-24T00:14:11.880Z,65.42
2018-04-24T00:14:38.012Z,65.42
2018-04-24T00:15:04.152Z,65.33
2018-04-24T00:15:30.293Z,65.04
2018-04-24T00:15:56.525Z,65.04
2018-04-24T00:16:22.578Z,64.95
2018-04-24T00:16:48.745Z,64.95
2018-04-24T00:17:14.901Z,65.14
2018-04-24T00:17:41.055Z,64.95
2018-04-24T00:18:07.201Z,64.95
2018-04-24T00:18:33.334Z,65.23
2018-04-24T00:18:59.473Z,64.85
2018-04-24T00:19:25.636Z,64.66
2018-04-24T00:19:51.773Z,64.85
2018-04-24T00:20:17.913Z,64.56
2018-04-24T00:20:44.060Z,64.75
2018-04-24T00:21:10.190Z,64.66
2018-04-24T00:21:36.332Z,64.95
2018-04-24T00:22:02.478Z,64.85
2018-04-24T00:22:28.620Z,65.11
2018-04-24T00:22:54.753Z,65.42
2018-04-24T00:23:20.918Z,65.39
2018-04-24T00:23:47.084Z,65.68
2018-04-24T00:24:13.245Z,65.3
2018-04-24T00:24:39.389Z,65.2
2018-04-24T00:25:05.530Z,65.97
2018-04-24T00:25:31.671Z,65.58
2018-04-24T00:25:57.803Z,65.68
2018-04-24T00:26:23.990Z,65.58
2018-04-24T00:26:50.119Z,65.48
2018-04-24T00:27:16.266Z,65.39
2018-04-24T00:27:42.457Z,65.87
2018-04-24T00:28:08.603Z,66.25
2018-04-24T00:28:34.742Z,66.06
2018-04-24T00:29:00.949Z,65.97
2018-04-24T00:29:27.086Z,66.25
2018-04-24T00:29:53.225Z,66.16
2018-04-24T00:30:19.372Z,66.25
2018-04-24T00:30:45.511Z,66.35
2018-04-24T00:31:11.645Z,66.44
2018-04-24T00:31:37.784Z,66.35
2018-04-24T00:32:03.924Z,66.16
2018-04-24T00:32:30.080Z,66.54
2018-04-24T00:32:56.222Z,66.25
2018-04-24T00:33:22.364Z,66.25
2018-04-24T00:33:48.529Z,66.06
2018-04-24T00:34:14.760Z,66.06
2018-04-24T00:34:40.847Z,65.77
2018-04-24T00:35:06.988Z,66.25
2018-04-24T00:35:33.156Z,66.73
2018-04-24T00:35:59.304Z,66.54
2018-04-24T00:36:25.438Z,66.83
2018-04-24T00:36:51.578Z,66.73
2018-04-24T00:37:17.715Z,66.73
2018-04-24T00:37:43.860Z,66.92
2018-04-24T00:38:09.992Z,67.11
2018-04-24T00:38:36.161Z,66.73
2018-04-24T00:39:02.318Z,66.92
2018-04-24T00:39:28.466Z,66.73
2018-04-24T00:39:54.598Z,66.92
2018-04-24T00:40:20.738Z,67.3
2018-04-24T00:40:46.877Z,67.4
2018-04-24T00:41:13.023Z,67.02
2018-04-24T00:41:39.184Z,66.92
2018-04-24T00:42:05.377Z,67.4
2018-04-24T00:42:31.520Z,67.3
2018-04-24T00:42:57.658Z,67.55
2018-04-24T00:43:23.802Z,67.88
2018-04-24T00:43:49.947Z,67.78
2018-04-24T00:44:16.076Z,67.78
2018-04-24T00:44:42.243Z,67.69
2018-04-24T00:45:08.380Z,68.07
2018-04-24T00:45:34.509Z,67.4
2018-04-24T00:46:00.649Z,67.69
2018-04-24T00:46:26.815Z,68.13
2018-04-24T00:46:52.958Z,67.75
2018-04-24T00:47:19.095Z,68.32
2018-04-24T00:47:45.230Z,68.04
2018-04-24T00:48:11.365Z,67.75
2018-04-24T00:48:37.503Z,68.13
2018-04-24T00:49:03.647Z,67.84
2018-04-24T00:49:29.788Z,68.41
2018-04-24T00:49:55.931Z,68.7
2018-04-24T00:50:22.071Z,68.61
2018-04-24T00:50:48.237Z,68.61
2018-04-24T00:51:14.404Z,68.61
2018-04-24T00:51:40.572Z,68.99
2018-04-24T00:52:06.713Z,68.8
2018-04-24T00:52:32.849Z,68.9
2018-04-24T00:52:58.993Z,68.7
2018-04-24T00:53:25.154Z,68.8
2018-04-24T00:53:51.297Z,68.7
2018-04-24T00:54:17.456Z,68.8
2018-04-24T00:54:43.601Z,68.51
2018-04-24T00:55:09.740Z,68.51
2018-04-24T00:55:35.879Z,69.09
2018-04-24T00:56:02.014Z,69.18
2018-04-24T00:56:28.149Z,69.09
2018-04-24T00:56:54.322Z,69.18
2018-04-24T00:57:20.485Z,69.27
2018-04-24T00:57:46.650Z,69.47
2018-04-24T00:58:12.789Z,69.27
2018-04-24T00:58:38.928Z,69.27
2018-04-24T00:59:05.086Z,69.66
2018-04-24T00:59:31.228Z,69.56
2018-04-24T00:59:57.362Z,69.37
2018-04-24T01:00:23.505Z,69.37
2018-04-24T01:00:49.635Z,69.37
2018-04-24T01:01:15.799Z,69.76
2018-04-24T01:01:41.940Z,69.85
2018-04-24T01:02:08.108Z,69.95
2018-04-24T01:02:34.245Z,69.66
2018-04-24T01:03:00.410Z,69.66
2018-04-24T01:03:26.541Z,69.72
2018-04-24T01:03:52.680Z,69.85
2018-04-24T01:04:18.822Z,69.85
2018-04-24T01:04:44.956Z,69.62
2018-04-24T01:05:11.120Z,69.91
2018-04-24T01:05:37.260Z,70.52
2018-04-24T01:06:03.401Z,70.48
2018-04-24T01:06:29.536Z,69.91
2018-04-24T01:06:55.690Z,70.58
2018-04-24T01:07:21.832Z,70.48
2018-04-24T01:07:48.019Z,70.48
2018-04-24T01:08:14.166Z,70.2
2018-04-24T01:08:40.296Z,70.58
2018-04-24T01:09:06.441Z,70.1
2018-04-24T01:09:32.568Z,70.39
2018-04-24T01:09:58.714Z,70.67
2018-04-24T01:10:24.851Z,70.87
2018-04-24T01:10:50.986Z,70.58
2018-04-24T01:11:17.124Z,70.39
2018-04-24T01:11:43.265Z,70.58
2018-04-24T01:12:09.404Z,70.67
2018-04-24T01:12:35.544Z,70.58
2018-04-24T01:13:01.682Z,70.39
2018-04-24T01:13:27.816Z,70.67
2018-04-24T01:13:53.953Z,70.39
2018-04-24T01:14:20.087Z,70.77
2018-04-24T01:14:46.259Z,70.77
2018-04-24T01:15:12.444Z,70.48
2018-04-24T01:15:38.586Z,70.58
2018-04-24T01:16:04.728Z,70.77
2018-04-24T01:16:30.861Z,70.67
2018-04-24T01:16:57.005Z,70.67
2018-04-24T01:17:23.137Z,70.87
2018-04-24T01:17:49.281Z,70.77
2018-04-24T01:18:15.417Z,71.06
2018-04-24T01:18:41.563Z,71.06
2018-04-24T01:19:07.701Z,70.87
2018-04-24T01:19:33.841Z,71.15
2018-04-24T01:19:59.987Z,70.77
2018-04-24T01:20:26.143Z,71.53
2018-04-24T01:20:52.283Z,71.44
2018-04-24T01:21:18.421Z,71.34
2018-04-24T01:21:44.558Z,71.06
2018-04-24T01:22:10.699Z,70.96
2018-04-24T01:22:36.838Z,71.06
2018-04-24T01:23:02.975Z,71.06
2018-04-24T01:23:29.109Z,71.06
2018-04-24T01:23:55.250Z,71.15
2018-04-24T01:24:21.394Z,71.06
2018-04-24T01:24:47.532Z,71.06
2018-04-24T01:25:13.678Z,71.15
2018-04-24T01:25:39.815Z,71.06
2018-04-24T01:26:05.949Z,71.15
2018-04-24T01:26:32.097Z,71.06
2018-04-24T01:26:58.226Z,70.77
2018-04-24T01:27:24.368Z,70.96
2018-04-24T01:27:50.512Z,71.15
2018-04-24T01:28:16.654Z,70.77
2018-04-24T01:28:42.794Z,71.06
2018-04-24T01:29:08.961Z,71.06
2018-04-24T01:29:35.096Z,70.87
2018-04-24T01:30:01.234Z,71.06
2018-04-24T01:30:27.377Z,70.96
2018-04-24T01:30:53.520Z,71.06
2018-04-24T01:31:19.658Z,71.25
2018-04-24T01:31:45.795Z,70.77
2018-04-24T01:32:11.963Z,70.77
2018-04-24T01:32:38.125Z,70.67
2018-04-24T01:33:04.291Z,70.96
2018-04-24T01:33:30.445Z,71.06
2018-04-24T01:33:56.578Z,71.15
2018-04-24T01:34:22.725Z,70.87
2018-04-24T01:34:48.916Z,70.87
2018-04-24T01:35:15.047Z,71.15
2018-04-24T01:35:41.189Z,70.96
2018-04-24T01:36:07.319Z,71.53
2018-04-24T01:36:33.463Z,71.53
2018-04-24T01:36:59.601Z,71.53
2018-04-24T01:37:25.744Z,71.25
2018-04-24T01:37:51.879Z,71.72
2018-04-24T01:38:18.015Z,71.82
2018-04-24T01:38:44.156Z,71.06
2018-04-24T01:39:10.306Z,71.5
2018-04-24T01:39:36.444Z,71.92
2018-04-24T01:40:02.598Z,71.21
2018-04-24T01:40:28.731Z,71.82
2018-04-24T01:40:54.874Z,71.5
2018-04-24T01:41:21.042Z,71.92
2018-04-24T01:41:47.171Z,71.53
2018-04-24T01:42:13.311Z,71.34
2018-04-24T01:42:39.452Z,71.5
2018-04-24T01:43:05.591Z,71.53
2018-04-24T01:43:31.729Z,71.44
2018-04-24T01:43:57.891Z,71.63
2018-04-24T01:44:24.028Z,71.53
2018-04-24T01:44:50.170Z,71.34
2018-04-24T01:45:16.312Z,71.34
2018-04-24T01:45:42.521Z,71.15
2018-04-24T01:46:08.643Z,71.53
2018-04-24T01:46:34.784Z,71.92
2018-04-24T01:47:01.006Z,71.44
2018-04-24T01:47:27.068Z,71.72
2018-04-24T01:47:53.198Z,71.53
2018-04-24T01:48:19.337Z,71.34
2018-04-24T01:48:45.486Z,71.63
2018-04-24T01:49:11.625Z,72.2
2018-04-24T01:49:37.767Z,71.82
2018-04-24T01:50:03.933Z,71.92
2018-04-24T01:50:30.090Z,71.92
2018-04-24T01:50:56.250Z,72.01
2018-04-24T01:51:22.385Z,72.26
2018-04-24T01:51:48.537Z,71.92
2018-04-24T01:52:14.686Z,72.3
2018-04-24T01:52:40.826Z,72.45
2018-04-24T01:53:06.974Z,72.78
2018-04-24T01:53:33.132Z,72.78
2018-04-24T01:53:59.280Z,72.17
2018-04-24T01:54:25.437Z,72.2
2018-04-24T01:54:51.578Z,72.36
2018-04-24T01:55:17.716Z,72.55
2018-04-24T01:55:43.857Z,72.78
2018-04-24T01:56:09.994Z,72.39
2018-04-24T01:56:36.180Z,73.25
2018-04-24T01:57:02.310Z,72.97
2018-04-24T01:57:28.478Z,72.68
2018-04-24T01:57:54.619Z,73.25
2018-04-24T01:58:20.785Z,72.83
2018-04-24T01:58:46.952Z,72.78
2018-04-24T01:59:13.084Z,72.64
2018-04-24T01:59:39.225Z,72.87
2018-04-24T02:00:05.367Z,72.58
2018-04-24T02:00:31.526Z,72.97
2018-04-24T02:00:57.663Z,72.78
2018-04-24T02:01:23.807Z,72.68
2018-04-24T02:01:49.942Z,73.07
2018-04-24T02:02:16.078Z,73.16
2018-04-24T02:02:42.212Z,72.93
2018-04-24T02:03:08.357Z,73.92
2018-04-24T02:03:34.497Z,73.41
2018-04-24T02:04:00.668Z,73.6
2018-04-24T02:04:26.823Z,73.16
2018-04-24T02:04:52.967Z,73.63
2018-04-24T02:05:19.101Z,73.22
2018-04-24T02:05:45.264Z,73.88
2018-04-24T02:06:11.410Z,73.79
2018-04-24T02:06:37.567Z,74.3
2018-04-24T02:07:03.701Z,74.27
2018-04-24T02:07:29.874Z,73.79
2018-04-24T02:07:56.017Z,73.79
2018-04-24T02:08:22.151Z,74.08
2018-04-24T02:08:48.317Z,74.65
2018-04-24T02:09:14.453Z,74.49
2018-04-24T02:09:40.593Z,74.27
2018-04-24T02:10:06.731Z,74.08
2018-04-24T02:10:32.876Z,74.17
2018-04-24T02:10:59.034Z,74.74
2018-04-24T02:11:25.185Z,74.74
2018-04-24T02:11:51.338Z,74.74
2018-04-24T02:12:17.484Z,75.13
2018-04-24T02:12:43.617Z,74.93
2018-04-24T02:13:09.775Z,74.55
2018-04-24T02:13:35.913Z,75.22
2018-04-24T02:14:02.087Z,75.32
2018-04-24T02:14:28.248Z,75.22
2018-04-24T02:14:54.389Z,75.42
2018-04-24T02:15:20.529Z,75.42
2018-04-24T02:15:46.689Z,75.42
2018-04-24T02:16:12.874Z,75.51
2018-04-24T02:16:39.041Z,75.6
2018-04-24T02:17:05.212Z,75.51
2018-04-24T02:17:31.397Z,75.7
2018-04-24T02:17:57.532Z,75.79
2018-04-24T02:18:23.674Z,75.79
2018-04-24T02:18:49.817Z,75.6
2018-04-24T02:19:15.951Z,75.51
2018-04-24T02:19:42.117Z,75.09
2018-04-24T02:20:08.287Z,75.13
2018-04-24T02:20:34.422Z,75.66
2018-04-24T02:21:00.563Z,76.18
2018-04-24T02:21:26.712Z,75.95
2018-04-24T02:21:52.875Z,76.08
2018-04-24T02:22:19.034Z,75.95
2018-04-24T02:22:45.191Z,76.08
2018-04-24T02:23:11.359Z,75.76
2018-04-24T02:23:37.500Z,75.76
2018-04-24T02:24:03.660Z,76.08
2018-04-24T02:24:29.860Z,76.08
2018-04-24T02:24:55.958Z,75.98
2018-04-24T02:25:22.103Z,76.04
2018-04-24T02:25:48.271Z,75.76
2018-04-24T02:26:14.409Z,76.04
2018-04-24T02:26:40.550Z,75.76
2018-04-24T02:27:06.691Z,75.57
2018-04-24T02:27:32.831Z,75.47
2018-04-24T02:27:58.992Z,75.57
2018-04-24T02:28:25.138Z,75.51
2018-04-24T02:28:51.275Z,74.93
2018-04-24T02:29:17.411Z,75.66
2018-04-24T02:29:43.545Z,75.57
2018-04-24T02:30:09.695Z,75.37
2018-04-24T02:30:35.831Z,75.76
2018-04-24T02:31:02.021Z,75.7
2018-04-24T02:31:28.179Z,75.18
2018-04-24T02:31:54.332Z,75.32
2018-04-24T02:32:20.479Z,74.46
2018-04-24T02:32:46.613Z,74.84
2018-04-24T02:33:12.800Z,75.09
2018-04-24T02:33:38.975Z,74.74
2018-04-24T02:34:05.107Z,74.61
2018-04-24T02:34:31.244Z,74.74
2018-04-24T02:34:57.412Z,74.8
2018-04-24T02:35:23.569Z,74.71
2018-04-24T02:35:49.756Z,74.8
2018-04-24T02:36:15.942Z,74.8
2018-04-24T02:36:42.081Z,74.61
2018-04-24T02:37:08.235Z,74.71
2018-04-24T02:37:34.417Z,74.55
2018-04-24T02:38:00.559Z,74.61
2018-04-24T02:38:26.752Z,74.84
2018-04-24T02:38:52.946Z,74.55
2018-04-24T02:39:19.101Z,74.52
2018-04-24T02:39:45.241Z,74.42
2018-04-24T02:40:11.401Z,74.52
2018-04-24T02:40:37.538Z,74.52
2018-04-24T02:41:03.682Z,74.84
2018-04-24T02:41:29.824Z,74.52
2018-04-24T02:41:55.955Z,74.08
2018-04-24T02:42:22.102Z,74.61
2018-04-24T02:42:48.271Z,74.61
2018-04-24T02:43:14.432Z,74.17
2018-04-24T02:43:40.595Z,74.37
2018-04-24T02:44:06.781Z,74.08
2018-04-24T02:44:32.916Z,73.88
2018-04-24T02:44:59.068Z,74.17
2018-04-24T02:45:25.211Z,74.46
2018-04-24T02:45:51.346Z,74.32
2018-04-24T02:46:17.515Z,74.52
2018-04-24T02:46:43.646Z,74.23
2018-04-24T02:47:09.822Z,73.98
2018-04-24T02:47:35.956Z,73.98
2018-04-24T02:48:02.121Z,74.04
2018-04-24T02:48:28.290Z,73.98
2018-04-24T02:48:54.435Z,73.85
2018-04-24T02:49:20.569Z,73.66
2018-04-24T02:49:46.752Z,73.94
2018-04-24T02:50:12.894Z,74.13
2018-04-24T02:50:39.051Z,73.85
2018-04-24T02:51:05.247Z,73.94
2018-04-24T02:51:31.380Z,73.75
2018-04-24T02:51:57.543Z,73.85
2018-04-24T02:52:23.703Z,73.94
2018-04-24T02:52:49.868Z,73.94
2018-04-24T02:53:16.031Z,73.94
2018-04-24T02:53:42.256Z,73.75
2018-04-24T02:54:08.447Z,74.13
2018-04-24T02:54:34.609Z,74.23
2018-04-24T02:55:00.767Z,74.61
2018-04-24T02:55:26.986Z,74.52
2018-04-24T02:55:53.143Z,73.94
2018-04-24T02:56:19.285Z,74.04
2018-04-24T02:56:45.422Z,74.42
2018-04-24T02:57:11.573Z,74.32
2018-04-24T02:57:37.707Z,74.61
2018-04-24T02:58:03.870Z,74.71
2018-04-24T02:58:30.003Z,74.23
2018-04-24T02:58:56.142Z,74.04
2018-04-24T02:59:22.309Z,74.32
2018-04-24T02:59:48.466Z,74.32
2018-04-24T03:00:14.610Z,74.52
2018-04-24T03:00:40.782Z,74.52
2018-04-24T03:01:06.951Z,74.61
2018-04-24T03:01:33.120Z,74.52
2018-04-24T03:01:59.257Z,74.42
2018-04-24T03:02:25.422Z,74.42
2018-04-24T03:02:51.603Z,74.61
2018-04-24T03:03:17.771Z,74.04
2018-04-24T03:03:43.941Z,74.32
2018-04-24T03:04:10.102Z,74.13
2018-04-24T03:04:36.245Z,74.42
2018-04-24T03:05:02.396Z,73.85
2018-04-24T03:05:28.541Z,74.04
2018-04-24T03:05:54.702Z,73.66
2018-04-24T03:06:20.871Z,73.94
2018-04-24T03:06:47.004Z,73.75
2018-04-24T03:07:13.143Z,73.56
2018-04-24T03:07:39.380Z,73.56
2018-04-24T03:08:05.517Z,73.94
2018-04-24T03:08:31.682Z,73.75
2018-04-24T03:08:57.824Z,73.75
2018-04-24T03:09:24.017Z,73.37
2018-04-24T03:09:50.181Z,73.37
2018-04-24T03:10:16.315Z,73.66
2018-04-24T03:10:42.484Z,73.47
2018-04-24T03:11:08.617Z,73.47
2018-04-24T03:11:34.780Z,73.47
2018-04-24T03:12:00.960Z,73.47
2018-04-24T03:12:27.121Z,73.47
2018-04-24T03:12:53.254Z,73.75
2018-04-24T03:13:19.411Z,73.47
2018-04-24T03:13:45.604Z,73.56
2018-04-24T03:14:11.788Z,73.37
2018-04-24T03:14:37.968Z,73.66
2018-04-24T03:15:04.112Z,73.75
2018-04-24T03:15:30.270Z,73.37
2018-04-24T03:15:56.413Z,73.66
2018-04-24T03:16:22.575Z,72.99
2018-04-24T03:16:48.711Z,73.66
2018-04-24T03:17:14.850Z,73.75
2018-04-24T03:17:40.989Z,73.75
2018-04-24T03:18:07.126Z,73.66
2018-04-24T03:18:33.263Z,73.66
2018-04-24T03:18:59.405Z,73.37
2018-04-24T03:19:25.571Z,72.99
2018-04-24T03:19:51.725Z,73.56
2018-04-24T03:20:17.866Z,72.99
2018-04-24T03:20:44.006Z,73.75
2018-04-24T03:21:10.164Z,74.04
2018-04-24T03:21:36.303Z,73.66
2018-04-24T03:22:02.441Z,73.66
2018-04-24T03:22:28.583Z,72.99
2018-04-24T03:22:54.722Z,73.47
2018-04-24T03:23:20.863Z,73.66
2018-04-24T03:23:47.000Z,73.66
2018-04-24T03:24:13.140Z,73.66
2018-04-24T03:24:39.303Z,73.56
2018-04-24T03:25:05.444Z,73.47
2018-04-24T03:25:31.577Z,73.85
2018-04-24T03:25:57.722Z,72.99
2018-04-24T03:26:23.857Z,73.47
2018-04-24T03:26:49.998Z,73.75
2018-04-24T03:27:16.159Z,73.75
2018-04-24T03:27:42.294Z,73.56
2018-04-24T03:28:08.464Z,73.85
2018-04-24T03:28:34.619Z,73.56
2018-04-24T03:29:00.782Z,73.56
2018-04-24T03:29:26.920Z,73.18
2018-04-24T03:29:53.059Z,73.56
2018-04-24T03:30:19.224Z,73.66
2018-04-24T03:30:45.358Z,73.56
2018-04-24T03:31:11.529Z,73.28
2018-04-24T03:31:37.726Z,73.08
2018-04-24T03:32:03.863Z,72.89
2018-04-24T03:32:30.030Z,73.18
2018-04-24T03:32:56.169Z,73.08
2018-04-24T03:33:22.327Z,73.08
2018-04-24T03:33:48.472Z,72.71
2018-04-24T03:34:14.611Z,73.56
2018-04-24T03:34:40.742Z,73.47
2018-04-24T03:35:06.880Z,73.37
2018-04-24T03:35:33.042Z,73.37
2018-04-24T03:35:59.178Z,73.37
2018-04-24T03:36:25.312Z,73.47
2018-04-24T03:36:51.453Z,73.37
2018-04-24T03:37:17.616Z,73.47
2018-04-24T03:37:43.759Z,73.37
2018-04-24T03:38:09.898Z,73.66
2018-04-24T03:38:36.095Z,73.56
2018-04-24T03:39:02.227Z,73.94
2018-04-24T03:39:28.365Z,73.94
2018-04-24T03:39:54.507Z,74.04
2018-04-24T03:40:20.660Z,73.75
2018-04-24T03:40:46.822Z,74.13
2018-04-24T03:41:12.957Z,74.04
2018-04-24T03:41:39.103Z,73.66
2018-04-24T03:42:05.243Z,73.85
2018-04-24T03:42:31.382Z,73.75
2018-04-24T03:42:57.520Z,74.13
2018-04-24T03:43:23.658Z,73.75
2018-04-24T03:43:49.801Z,73.75
2018-04-24T03:44:15.938Z,73.66
2018-04-24T03:44:42.096Z,73.75
2018-04-24T03:45:08.238Z,74.04
2018-04-24T03:45:34.372Z,73.66
2018-04-24T03:46:00.511Z,73.37
2018-04-24T03:46:26.650Z,73.37
2018-04-24T03:46:52.803Z,73.37
2018-04-24T03:47:18.966Z,73.56
2018-04-24T03:47:45.104Z,73.47
2018-04-24T03:48:11.244Z,73.56
2018-04-24T03:48:37.387Z,73.75
2018-04-24T03:49:03.523Z,74.04
2018-04-24T03:49:29.689Z,73.94
2018-04-24T03:49:55.848Z,73.56
2018-04-24T03:50:22.009Z,73.94
2018-04-24T03:50:48.144Z,73.94
2018-04-24T03:51:14.290Z,74.04
2018-04-24T03:51:40.438Z,74.04
2018-04-24T03:52:06.571Z,73.75
2018-04-24T03:52:32.711Z,74.04
2018-04-24T03:52:58.850Z,73.94
2018-04-24T03:53:24.984Z,73.85
2018-04-24T03:53:51.150Z,74.04
2018-04-24T03:54:17.285Z,74.13
2018-04-24T03:54:43.435Z,74.19
2018-04-24T03:55:09.576Z,73.94
2018-04-24T03:55:35.709Z,74.42
2018-04-24T03:56:01.851Z,74.04
2018-04-24T03:56:27.993Z,73.66
2018-04-24T03:56:54.132Z,73.94
2018-04-24T03:57:20.282Z,73.94
2018-04-24T03:57:46.426Z,73.75
2018-04-24T03:58:12.591Z,74.13
2018-04-24T03:58:38.750Z,73.75
2018-04-24T03:59:04.907Z,73.75
2018-04-24T03:59:31.051Z,73.94
2018-04-24T03:59:57.182Z,73.75
2018-04-24T04:00:23.323Z,74.04
2018-04-24T04:00:49.463Z,74.13
2018-04-24T04:01:15.598Z,74.13
2018-04-24T04:01:41.740Z,73.66
2018-04-24T04:02:07.876Z,73.75
2018-04-24T04:02:34.021Z,74.23
2018-04-24T04:03:00.154Z,74.23
2018-04-24T04:03:26.291Z,74.04
2018-04-24T04:03:52.424Z,73.47
2018-04-24T04:04:18.590Z,74.04
2018-04-24T04:04:44.759Z,74.04
2018-04-24T04:05:10.893Z,73.94
2018-04-24T04:05:37.026Z,74.04
2018-04-24T04:06:03.159Z,74.04
2018-04-24T04:06:29.307Z,73.75
2018-04-24T04:06:55.476Z,74.04
2018-04-24T04:07:21.661Z,73.85
2018-04-24T04:07:47.824Z,73.66
2018-04-24T04:08:13.969Z,74.04
2018-04-24T04:08:40.109Z,74.23
2018-04-24T04:09:06.276Z,73.94
2018-04-24T04:09:32.413Z,74.13
2018-04-24T04:09:58.584Z,73.94
2018-04-24T04:10:24.726Z,73.56
2018-04-24T04:10:50.860Z,73.75
2018-04-24T04:11:17.007Z,74.04
2018-04-24T04:11:43.147Z,73.85
2018-04-24T04:12:09.312Z,74.04
2018-04-24T04:12:35.468Z,73.85
2018-04-24T04:13:01.604Z,74.13
2018-04-24T04:13:27.769Z,74.04
2018-04-24T04:13:53.906Z,73.85
2018-04-24T04:14:20.075Z,74.23
2018-04-24T04:14:46.216Z,74.04
2018-04-24T04:15:12.356Z,74.42
2018-04-24T04:15:38.497Z,74.29
2018-04-24T04:16:04.648Z,74.32
2018-04-24T04:16:30.805Z,74.19
2018-04-24T04:16:56.935Z,74.38
2018-04-24T04:17:23.074Z,74.13
2018-04-24T04:17:49.207Z,74.42
2018-04-24T04:18:15.350Z,74.52
2018-04-24T04:18:41.489Z,74.52
2018-04-24T04:19:07.646Z,74.32
2018-04-24T04:19:33.786Z,73.85
2018-04-24T04:19:59.928Z,73.85
2018-04-24T04:20:26.070Z,73.85
2018-04-24T04:20:52.201Z,73.85
2018-04-24T04:21:18.345Z,73.75
2018-04-24T04:21:44.484Z,74.04
2018-04-24T04:22:10.625Z,74.04
2018-04-24T04:22:36.775Z,73.75
2018-04-24T04:23:02.917Z,74.04
2018-04-24T04:23:29.060Z,73.94
2018-04-24T04:23:55.193Z,73.85
2018-04-24T04:24:21.323Z,74.23
2018-04-24T04:24:47.464Z,73.94
2018-04-24T04:25:13.604Z,73.94
2018-04-24T04:25:39.742Z,73.66
2018-04-24T04:26:05.881Z,73.37
2018-04-24T04:26:32.022Z,73.56
2018-04-24T04:26:58.159Z,73.37
2018-04-24T04:27:24.305Z,73.56
2018-04-24T04:27:50.438Z,73.56
2018-04-24T04:28:16.579Z,73.47
2018-04-24T04:28:42.720Z,73.37
2018-04-24T04:29:08.868Z,73.56
2018-04-24T04:29:35.028Z,73.47
2018-04-24T04:30:01.161Z,73.75
2018-04-24T04:30:27.303Z,73.66
2018-04-24T04:30:53.451Z,72.99
2018-04-24T04:31:19.604Z,73.37
2018-04-24T04:31:45.746Z,73.66
2018-04-24T04:32:11.910Z,73.37
2018-04-24T04:32:38.062Z,73.47
2018-04-24T04:33:04.207Z,73.37
2018-04-24T04:33:30.351Z,73.37
2018-04-24T04:33:56.486Z,73.37
2018-04-24T04:34:22.647Z,73.47
2018-04-24T04:34:48.790Z,73.56
2018-04-24T04:35:14.924Z,73.56
2018-04-24T04:35:41.063Z,73.56
2018-04-24T04:36:07.197Z,74.04
2018-04-24T04:36:33.360Z,73.56
2018-04-24T04:36:59.502Z,74.23
2018-04-24T04:37:25.644Z,74.13
2018-04-24T04:37:51.778Z,74.04
2018-04-24T04:38:17.922Z,73.75
2018-04-24T04:38:44.060Z,74.13
2018-04-24T04:39:10.200Z,73.75
2018-04-24T04:39:36.337Z,73.85
2018-04-24T04:40:02.470Z,73.66
2018-04-24T04:40:28.603Z,73.75
2018-04-24T04:40:54.742Z,74.04
2018-04-24T04:41:20.945Z,74.13
2018-04-24T04:41:47.051Z,73.66
2018-04-24T04:42:13.197Z,73.75
2018-04-24T04:42:39.332Z,74.13
2018-04-24T04:43:05.554Z,74.04
2018-04-24T04:43:31.693Z,73.75
2018-04-24T04:43:57.840Z,73.85
2018-04-24T04:44:23.980Z,73.47
2018-04-24T04:44:50.114Z,73.75
2018-04-24T04:45:16.255Z,74.23
2018-04-24T04:45:42.438Z,73.37
2018-04-24T04:46:08.576Z,74.13
2018-04-24T04:46:34.709Z,74.13
2018-04-24T04:47:00.851Z,73.94
2018-04-24T04:47:27.018Z,74.04
2018-04-24T04:47:53.180Z,74.32
2018-04-24T04:48:19.280Z,74.23
2018-04-24T04:48:45.442Z,74.04
2018-04-24T04:49:11.582Z,73.94
2018-04-24T04:49:37.750Z,74.04
2018-04-24T04:50:03.886Z,74.23
2018-04-24T04:50:30.023Z,75.47
2018-04-24T04:50:56.171Z,76.04
2018-04-24T04:51:22.308Z,75.85
2018-04-24T04:51:48.445Z,76.37
2018-04-24T04:52:14.587Z,78.37
2018-04-24T04:52:40.723Z,78.37
2018-04-24T04:53:06.925Z,76.18
2018-04-24T04:53:33.066Z,74.98
2018-04-24T04:53:59.211Z,74.78
2018-04-24T04:54:25.375Z,74.78
2018-04-24T04:54:51.511Z,74.02
2018-04-24T04:55:17.659Z,72.68
2018-04-24T04:55:43.808Z,72.39
2018-04-24T04:56:09.979Z,72.01
2018-04-24T04:56:36.100Z,73.07
2018-04-24T04:57:02.232Z,72.68
2018-04-24T04:57:28.374Z,72.01
2018-04-24T04:57:54.507Z,71.15
2018-04-24T04:58:20.650Z,71.06
2018-04-24T04:58:46.784Z,70.87
2018-04-24T04:59:12.927Z,70.9
2018-04-24T04:59:39.069Z,70.33
2018-04-24T05:00:05.209Z,70.87
2018-04-24T05:00:31.349Z,70.33
2018-04-24T05:00:57.509Z,70.2
2018-04-24T05:01:23.673Z,70.42
2018-04-24T05:01:49.807Z,70.96
2018-04-24T05:02:15.947Z,70.58
2018-04-24T05:02:42.098Z,69.85
2018-04-24T05:03:08.251Z,70.33
2018-04-24T05:03:34.416Z,70.52
2018-04-24T05:04:00.555Z,70.23
2018-04-24T05:04:26.692Z,70.33
2018-04-24T05:04:52.851Z,70.42
2018-04-24T05:05:19.067Z,69.37
2018-04-24T05:05:45.131Z,69.85
2018-04-24T05:06:11.285Z,69.76
2018-04-24T05:06:37.448Z,69.85
2018-04-24T05:07:03.611Z,70.33
2018-04-24T05:07:29.754Z,69.37
2018-04-24T05:07:55.911Z,69.27
2018-04-24T05:08:22.049Z,68.9
2018-04-24T05:08:48.195Z,68.61
2018-04-24T05:09:14.351Z,69.27
2018-04-24T05:09:40.566Z,68.9
2018-04-24T05:10:06.638Z,68.9
2018-04-24T05:10:32.779Z,68.61
2018-04-24T05:10:58.932Z,68.7
2018-04-24T05:11:25.073Z,68.7
2018-04-24T05:11:51.256Z,68.9
2018-04-24T05:12:17.385Z,68.51
2018-04-24T05:12:43.529Z,68.41
2018-04-24T05:13:09.670Z,68.13
2018-04-24T05:13:35.812Z,67.84
2018-04-24T05:14:01.955Z,67.94
2018-04-24T05:14:28.097Z,68.61
2018-04-24T05:14:54.240Z,68.8
2018-04-24T05:15:20.396Z,68.9
2018-04-24T05:15:46.542Z,68.61
2018-04-24T05:16:12.711Z,68.99
2018-04-24T05:16:38.847Z,68.8
2018-04-24T05:17:05.011Z,69.09
2018-04-24T05:17:31.150Z,69.09
2018-04-24T05:17:57.283Z,68.8
2018-04-24T05:18:23.446Z,68.8
2018-04-24T05:18:49.586Z,68.9
2018-04-24T05:19:15.726Z,68.96
2018-04-24T05:19:41.863Z,68.67
2018-04-24T05:20:08.020Z,69.05
2018-04-24T05:20:34.169Z,68.76
2018-04-24T05:21:00.303Z,69.43
2018-04-24T05:21:26.437Z,69.53
2018-04-24T05:21:52.582Z,69.34
2018-04-24T05:22:18.720Z,68.86
2018-04-24T05:22:44.884Z,69.05
2018-04-24T05:23:11.019Z,69.34
2018-04-24T05:23:37.163Z,69.34
2018-04-24T05:24:03.328Z,69.24
2018-04-24T05:24:29.489Z,69.43
2018-04-24T05:24:55.631Z,69.05
2018-04-24T05:25:21.768Z,69.24
2018-04-24T05:25:47.896Z,69.53
2018-04-24T05:26:14.037Z,69.15
2018-04-24T05:26:40.197Z,69.34
2018-04-24T05:27:06.372Z,69.43
2018-04-24T05:27:32.513Z,70.01
2018-04-24T05:27:58.679Z,70.29
2018-04-24T05:28:24.848Z,70.39
2018-04-24T05:28:50.989Z,70.2
2018-04-24T05:29:17.127Z,70.58
2018-04-24T05:29:43.269Z,70.39
2018-04-24T05:30:09.416Z,70.1
2018-04-24T05:30:35.554Z,70.39
2018-04-24T05:31:01.691Z,70.1
2018-04-24T05:31:27.854Z,70.2
2018-04-24T05:31:54.014Z,70.1
2018-04-24T05:32:20.154Z,70.48
2018-04-24T05:32:46.290Z,70.48
2018-04-24T05:33:12.452Z,70.39
2018-04-24T05:33:38.592Z,70.77
2018-04-24T05:34:04.728Z,70.2
2018-04-24T05:34:30.871Z,70.39
2018-04-24T05:34:57.009Z,69.72
2018-04-24T05:35:23.153Z,70.48
2018-04-24T05:35:49.405Z,70.48
2018-04-24T05:36:15.469Z,70.2
2018-04-24T05:36:41.602Z,70.39
2018-04-24T05:37:07.761Z,70.48
2018-04-24T05:37:33.908Z,69.62